Latest Weather Observations for Rocky Gully South

IDW60801

Issued at 4:53 pm WST Wednesday 19 September 2018 (issued every 10 minutes, with the page automatically refreshed every 10 minutes)

About weather observations | Map of weather stations | Latest weather observations for WA | Other Formats
Station Details ID: 009964 Name: ROCKY GULLY Lat: -34.57 Lon: 117.01 Height: 250.0 m
Data from the previous 72 hours. | See also: Recent months at Rocky Gully South
Date/Time
WST
Temp
°C
App
Temp
°C
Dew
Point
°C
Rel
Hum
%
Delta-T
°C
Wind Press
QNH
hPa
Press
MSL
hPa
Rain since
9am
mm
Dir  Spd
km/h
Gust
km/h
Spd
kts
Gust
kts
19/04:30pm 18.6 16.7 7.7 49 5.6 SW 7 11 4 6 - - 0.0
19/04:00pm 19.1 17.1 6.9 45 6.2 SSW 7 13 4 7 - - 0.0
19/03:30pm 19.1 17.2 7.5 47 6.0 WSW 7 15 4 8 - - 0.0
19/03:00pm 18.8 16.5 7.3 47 5.9 WNW 9 13 5 7 - - 0.0
19/02:30pm 18.4 16.3 8.4 52 5.2 W 9 15 5 8 - - 0.0
19/02:00pm 18.0 15.8 7.7 51 5.3 WSW 9 15 5 8 - - 0.0
19/01:30pm 17.3 15.5 7.9 54 4.8 WSW 7 17 4 9 - - 0.0
19/01:00pm 16.8 15.2 8.0 56 4.5 S 6 11 3 6 - - 0.0
19/12:30pm 15.9 13.7 7.9 59 4.1 WNW 9 19 5 10 - - 0.0
19/12:00pm 15.0 12.7 7.5 61 3.8 W 9 15 5 8 - - 0.0
19/11:30am 14.6 12.5 8.3 66 3.2 W 9 15 5 8 - - 0.0
19/11:00am 13.8 11.6 8.0 68 2.9 W 9 13 5 7 - - 0.0
19/10:30am 13.4 11.7 7.6 68 2.9 N 6 13 3 7 - - 0.0
19/10:00am 12.8 10.6 7.9 72 2.4 SW 9 17 5 9 - - 0.0
19/09:30am 11.8 9.8 7.3 74 2.2 WSW 7 15 4 8 - - 0.0
19/09:00am 11.6 9.7 7.7 77 1.9 SW 7 13 4 7 - - 0.2
19/08:30am 11.2 9.3 7.7 79 1.7 WSW 7 11 4 6 - - 0.2
19/08:00am 10.5 8.8 7.7 83 1.4 WSW 6 11 3 6 - - 0.2
19/07:30am 10.0 9.2 8.1 88 0.9 WNW 2 6 1 3 - - 0.2
19/07:00am 9.6 8.0 7.9 89 0.8 WSW 6 9 3 5 - - 0.2
19/06:30am 9.5 9.0 7.9 90 0.8 CALM 0 7 0 4 - - 0.2
19/06:00am 9.4 8.2 8.0 91 0.7 WSW 4 11 2 6 - - 0.2
19/05:30am 9.3 8.1 7.9 91 0.7 W 4 9 2 5 - - 0.2
19/05:00am 9.3 8.1 7.9 91 0.7 W 4 7 2 4 - - 0.2
19/04:30am 9.4 8.2 8.0 91 0.7 W 4 11 2 6 - - 0.2
19/04:00am 9.5 7.9 8.1 91 0.7 W 6 9 3 5 - - 0.2
19/03:30am 9.4 7.8 7.8 90 0.8 WSW 6 11 3 6 - - 0.2
19/03:00am 9.4 7.5 7.5 88 0.9 W 7 11 4 6 - - 0.2
19/02:30am 9.4 7.6 7.2 86 1.1 W 6 11 3 6 - - 0.2
19/02:00am 9.6 7.8 7.2 85 1.2 W 6 13 3 7 - - 0.2
19/01:30am 9.7 7.7 7.1 84 1.2 W 7 13 4 7 - - 0.2
19/01:00am 9.4 7.6 7.0 85 1.1 WNW 6 13 3 7 - - 0.2
19/12:30am 8.9 6.9 6.3 84 1.2 WNW 6 9 3 5 - - 0.2
19/12:00am 9.2 8.0 6.5 83 1.3 NNW 2 9 1 5 - - 0.2
 
Date/Time
WST
Temp
°C
App
Temp
°C
Dew
Point
°C
Rel
Hum
%
Delta-T
°C
Wind Press
QNH
hPa
Press
MSL
hPa
Rain since
9am
mm
Dir  Spd
km/h
Gust
km/h
Spd
kts
Gust
kts
18/11:30pm 9.4 7.8 6.5 82 1.4 WNW 4 7 2 4 - - 0.2
18/11:00pm 9.5 7.9 6.2 80 1.5 WNW 4 7 2 4 - - 0.2
18/10:30pm 10.4 8.5 6.9 79 1.7 WSW 6 9 3 5 - - 0.2
18/10:00pm 10.5 8.5 7.0 79 1.7 WSW 7 11 4 6 - - 0.2
18/09:30pm 10.5 8.7 7.2 80 1.6 WSW 6 15 3 8 - - 0.2
18/09:00pm 10.4 8.6 7.8 84 1.3 SW 7 11 4 6 - - 0.2
18/08:30pm 10.3 8.6 8.4 88 0.9 SW 7 11 4 6 - - 0.2
18/08:00pm 10.2 8.5 8.5 89 0.8 WSW 7 11 4 6 - - 0.2
18/07:30pm 10.0 8.8 8.1 88 0.9 WSW 4 7 2 4 - - 0.2
18/07:00pm 10.2 8.6 8.0 86 1.1 SW 6 9 3 5 - - 0.2
18/06:30pm 10.6 8.8 7.8 83 1.4 W 7 11 4 6 - - 0.2
18/06:00pm 11.3 8.8 8.0 80 1.6 W 11 17 6 9 - - 0.2
18/05:30pm 12.3 9.8 8.2 76 2.0 SSW 11 20 6 11 - - 0.2
18/05:00pm 12.9 10.4 8.4 74 2.3 SSW 11 17 6 9 - - 0.2
18/04:30pm 13.8 11.3 8.2 69 2.8 SW 11 22 6 12 - - 0.2
18/04:00pm 14.2 11.7 8.2 67 3.0 WSW 11 26 6 14 - - 0.2
18/03:30pm 14.9 12.4 8.4 65 3.3 WSW 11 24 6 13 - - 0.2
18/03:00pm 14.6 11.9 9.0 69 2.9 WSW 13 24 7 13 - - 0.2
18/02:30pm 14.8 12.5 9.0 68 3.0 WSW 11 19 6 10 - - 0.2
18/02:00pm 15.2 12.2 9.1 67 3.2 SW 15 28 8 15 - - 0.2
18/01:30pm 15.0 12.5 9.8 71 2.7 SW 13 20 7 11 - - 0.2
18/01:00pm 13.6 11.1 9.6 77 2.1 WSW 13 24 7 13 - - 0.2
18/12:30pm 13.3 10.4 9.5 78 2.0 WSW 15 26 8 14 - - 0.2
18/12:00pm 13.3 11.5 10.7 84 1.4 SW 11 22 6 12 - - 0.2
18/11:30am 13.0 11.2 10.7 86 1.2 SW 11 26 6 14 - - 0.0
18/11:00am 12.6 10.3 10.5 87 1.1 W 13 24 7 13 - - 0.0
18/10:30am 12.5 10.7 10.9 90 0.8 W 11 22 6 12 - - 0.0
18/10:00am 11.6 10.0 10.3 92 0.7 WSW 9 19 5 10 - - 0.0
18/09:30am 11.7 10.6 10.8 94 0.5 SW 7 20 4 11 - - 0.0
18/09:00am 10.6 9.4 9.7 94 0.5 WSW 6 9 3 5 - - 3.8
18/08:30am 9.9 8.0 9.0 94 0.4 W 9 17 5 9 - - 3.8
18/08:00am 9.6 8.2 8.7 94 0.4 WSW 6 11 3 6 - - 3.8
18/07:30am 9.2 7.1 8.3 94 0.4 W 9 17 5 9 - - 3.8
18/07:00am 8.7 6.9 7.8 94 0.4 W 7 13 4 7 - - 3.8
18/06:30am 8.5 6.8 7.6 94 0.4 WNW 6 11 3 6 - - 3.8
18/06:00am 8.4 7.0 7.3 93 0.5 WNW 4 9 2 5 - - 3.4
18/05:30am 8.4 6.4 7.3 93 0.5 W 7 11 4 6 - - 3.4
18/05:00am 8.2 7.1 7.1 93 0.5 NW 2 9 1 5 - - 3.4
18/04:30am 8.2 6.2 7.1 93 0.5 W 7 13 4 7 - - 3.4
18/04:00am 8.1 6.3 7.0 93 0.5 WNW 6 7 3 4 - - 3.4
18/03:30am 8.2 6.4 7.1 93 0.5 WNW 6 11 3 6 - - 3.4
18/03:00am 8.0 6.9 6.9 93 0.5 WNW 2 7 1 4 - - 3.4
18/02:30am 8.1 6.1 7.0 93 0.5 W 7 11 4 6 - - 3.4
18/02:00am 8.4 6.6 7.3 93 0.5 WNW 6 9 3 5 - - 3.4
18/01:30am 8.6 7.2 7.4 92 0.6 W 4 7 2 4 - - 3.4
18/01:00am 8.7 7.4 7.5 92 0.6 WNW 4 7 2 4 - - 3.4
18/12:30am 8.7 7.0 7.5 92 0.6 WSW 6 11 3 6 - - 3.4
18/12:00am 8.6 8.0 7.4 92 0.6 CALM 0 6 0 3 - - 3.4
 
Date/Time
WST
Temp
°C
App
Temp
°C
Dew
Point
°C
Rel
Hum
%
Delta-T
°C
Wind Press
QNH
hPa
Press
MSL
hPa
Rain since
9am
mm
Dir  Spd
km/h
Gust
km/h
Spd
kts
Gust
kts
17/11:30pm 8.6 7.6 7.4 92 0.6 W 2 6 1 3 - - 3.4
17/11:00pm 8.7 7.0 7.5 92 0.6 W 6 7 3 4 - - 3.4
17/10:30pm 8.8 7.5 7.6 92 0.6 WSW 4 7 2 4 - - 3.4
17/10:00pm 8.8 7.1 7.6 92 0.6 SW 6 9 3 5 - - 2.8
17/09:30pm 8.8 7.8 7.4 91 0.7 WNW 2 9 1 5 - - 2.6
17/09:00pm 8.6 8.0 7.2 91 0.7 CALM 0 7 0 4 - - 2.6
17/08:30pm 8.8 7.4 7.4 91 0.7 W 4 9 2 5 - - 2.6
17/08:00pm 9.0 8.0 7.5 90 0.7 WSW 2 9 1 5 - - 2.6
17/07:30pm 9.1 7.4 7.4 89 0.8 W 6 17 3 9 - - 2.6
17/07:00pm 9.1 6.7 7.2 88 0.9 WSW 9 15 5 8 - - 2.2
17/06:30pm 9.2 7.4 7.2 87 1.0 WSW 6 13 3 7 - - 2.0
17/06:00pm 9.4 7.6 7.2 86 1.1 SW 6 13 3 7 - - 2.0
17/05:30pm 10.1 7.7 7.0 81 1.5 WSW 9 17 5 9 - - 2.0
17/05:00pm 10.0 6.7 6.5 79 1.7 SSW 13 32 7 17 - - 1.6
17/04:30pm 11.1 7.5 6.6 74 2.2 SSW 15 32 8 17 - - 1.6
17/04:00pm 11.8 8.7 7.3 74 2.2 SSW 13 26 7 14 - - 1.6
17/03:30pm 10.5 7.5 7.6 82 1.4 SSW 13 28 7 15 - - 1.6
17/03:00pm 12.2 9.1 7.3 72 2.4 SW 13 26 7 14 - - 1.6
17/02:30pm 11.3 7.4 7.2 76 2.0 SW 17 32 9 17 - - 1.6
17/02:00pm 12.3 9.6 8.8 79 1.8 SW 13 24 7 13 - - 1.4
17/01:30pm 10.0 5.4 6.5 79 1.7 WSW 20 39 11 21 - - 1.4
17/01:00pm 11.5 8.5 7.8 78 1.8 SW 13 20 7 11 - - 1.4
17/12:30pm 12.3 9.3 7.6 73 2.3 SW 13 24 7 13 - - 0.8
17/12:00pm 11.1 7.8 8.0 81 1.5 WSW 15 26 8 14 - - 0.8
17/11:30am 10.9 7.7 6.8 76 2.0 SW 13 26 7 14 - - 0.4
17/11:00am 10.3 6.3 6.6 78 1.8 WSW 17 32 9 17 - - 0.4
17/10:30am 10.9 7.5 6.1 72 2.3 WSW 13 22 7 12 - - 0.2
17/10:00am 11.2 8.5 7.5 78 1.8 WSW 11 22 6 12 - - 0.2
17/09:30am 10.3 7.5 6.8 79 1.7 W 11 22 6 12 - - 0.0
17/09:00am 10.1 7.4 7.2 82 1.4 W 11 22 6 12 - - 1.4
17/08:30am 8.3 5.8 6.4 88 0.9 W 9 15 5 8 - - 1.4
17/08:00am 7.6 5.0 6.2 91 0.6 W 9 15 5 8 - - 1.4
17/07:30am 6.4 4.2 5.2 92 0.5 WNW 6 11 3 6 - - 1.4
17/07:00am 5.1 2.7 4.1 93 0.4 NW 6 9 3 5 - - 1.4
17/06:30am 4.0 2.5 3.0 93 0.4 CALM 0 0 0 0 - - 1.4
17/06:00am 4.1 1.9 3.1 93 0.4 N 4 6 2 3 - - 1.4
17/05:30am 4.9 2.4 3.9 93 0.4 NW 6 9 3 5 - - 1.4
17/05:00am 4.6 2.4 3.6 93 0.4 NW 4 7 2 4 - - 1.4
17/04:30am 4.8 2.3 3.8 93 0.4 NW 6 9 3 5 - - 1.4
17/04:00am 4.9 2.4 3.9 93 0.4 WNW 6 9 3 5 - - 1.4
17/03:30am 5.1 2.7 4.1 93 0.4 WNW 6 11 3 6 - - 1.4
17/03:00am 5.6 4.0 4.6 93 0.4 NW 2 6 1 3 - - 1.4
17/02:30am 5.7 4.1 4.7 93 0.4 NW 2 6 1 3 - - 1.2
17/02:00am 5.7 4.1 4.5 92 0.5 W 2 6 1 3 - - 1.2
17/01:30am 5.4 3.8 4.4 93 0.4 NW 2 7 1 4 - - 1.2
17/01:00am 5.4 4.1 4.2 92 0.5 CALM 0 0 0 0 - - 1.2
17/12:30am 6.2 4.7 5.0 92 0.5 W 2 7 1 4 - - 1.2
17/12:00am 6.5 4.7 5.3 92 0.5 WSW 4 9 2 5 - - 1.0
 
Date/Time
WST
Temp
°C
App
Temp
°C
Dew
Point
°C
Rel
Hum
%
Delta-T
°C
Wind Press
QNH
hPa
Press
MSL
hPa
Rain since
9am
mm
Dir  Spd
km/h
Gust
km/h
Spd
kts
Gust
kts
16/11:30pm 7.3 5.3 6.1 92 0.6 SW 6 9 3 5 - - 1.0
16/11:00pm 7.7 6.1 6.3 91 0.6 SW 4 11 2 6 - - 1.0
16/10:30pm 8.3 6.3 6.9 91 0.7 SW 7 13 4 7 - - 1.0
16/10:00pm 8.6 6.6 7.2 91 0.7 SW 7 15 4 8 - - 1.0
16/09:30pm 8.6 6.2 7.2 91 0.7 W 9 20 5 11 - - 0.8
16/09:00pm 8.5 7.0 7.0 90 0.7 NW 4 7 2 4 - - 0.6
16/08:30pm 8.7 8.0 7.0 89 0.8 CALM 0 0 0 0 - - 0.6
16/08:00pm 8.8 7.7 6.9 88 0.9 W 2 7 1 4 - - 0.6
16/07:30pm 9.0 5.8 6.8 86 1.0 SW 13 24 7 13 - - 0.6
16/07:00pm 11.3 8.3 5.8 69 2.6 W 11 26 6 14 - - 0.0
16/06:30pm 11.9 9.2 5.5 65 3.0 WNW 9 17 5 9 - - 0.0
16/06:00pm 12.0 9.2 5.2 63 3.2 WNW 9 15 5 8 - - 0.0
16/05:30pm 12.5 9.3 5.0 60 3.5 W 11 20 6 11 - - 0.0
16/05:00pm 12.7 9.2 5.4 61 3.4 W 13 24 7 13 - - 0.0

Other Formats:

Comma delimited format used in spreadsheet applications
http://www.bom.gov.au/fwo/IDW60801/IDW60801.94631.axf

JavaScript Object Notation format (JSON) in row-major order
http://www.bom.gov.au/fwo/IDW60801/IDW60801.94631.json